Arkansaw, Wisconsin
Current Conditions -  °F | °C
As of 12:55 AM on Sunday 26 Oct 2014 (Local Time) from KLUM Reporting Station
Clear Clear  
Wind Chill: 41°   Ceiling: Unl
Heat Index: 45°   Visibility: 10mi
Dew Point: 28°   Wind: 6mph
Humidity: 53%   Direction: 260°W
Pressure: 30.04"   Gusts: NA
Location:  44.63°N, 92.03°W
Report Text: KLUM 260555Z AUTO 26005KT 10SM CLR 07/M02 A3004 RMK AO2 T00701020 10130 20070 401720070
Loading
Personal Weather Stations






























Interactive Weather Map
Tropical Storm Tracking
New forecast layout! Learn more

10-Day Weather Forecast

Advertisements
Track Severe Weather on mobile